Time;durP1;ratioP1;P1;durP2;ratioP2;P2;SDS_P1;SDS_P2;PMS_P1;PMS_P2;Temp;Humidity;BMP_temperature;BMP_pressure;BME280_temperature;BME280_humidity;BME280_pressure;Samples;Min_cycle;Max_cycle;Signal;HPM_P1;HPM_P2
2022/05/23 00:01:43;;;;;;;1.10;1.10;;;;;;;;;;1840084;78;26884;-51
2022/05/23 00:04:11;;;;;;;1.10;1.00;;;;;;;;;;1839955;78;26731;-53
2022/05/23 00:06:38;;;;;;;0.90;0.90;;;;;;;;;;1839895;78;26286;-54
2022/05/23 00:09:06;;;;;;;0.93;0.93;;;;;;;;;;1812842;78;26740;-55
2022/05/23 00:11:33;;;;;;;1.10;1.10;;;;;;;;;;1815318;79;26267;-53
2022/05/23 00:14:00;;;;;;;1.00;1.00;;;;;;;;;;1815433;79;26326;-54
2022/05/23 00:16:29;;;;;;;0.90;0.90;;;;;;;;;;1789428;79;26300;-49
2022/05/23 00:18:57;;;;;;;1.10;1.10;;;;;;;;;;1780298;80;26919;-55
2022/05/23 00:21:24;;;;;;;0.98;0.98;;;;;;;;;;1780983;79;26784;-56
2022/05/23 00:23:51;;;;;;;0.90;0.90;;;;;;;;;;1792334;79;26842;-54
2022/05/23 00:26:20;;;;;;;1.07;1.07;;;;;;;;;;1809474;79;26298;-54
2022/05/23 00:28:48;;;;;;;0.90;0.90;;;;;;;;;;1809825;79;26697;-53
2022/05/23 00:31:16;;;;;;;1.00;1.00;;;;;;;;;;1808766;79;26325;-51
2022/05/23 00:36:30;;;;;;;0.98;0.98;;;;;;;;;;1791643;79;26827;-49
2022/05/23 00:38:57;;;;;;;1.02;1.02;;;;;;;;;;1774811;79;26288;-55
2022/05/23 00:44:15;;;;;;;1.00;1.00;;;;;;;;;;1804229;79;26353;-51
2022/05/23 00:46:56;;;;;;;1.00;1.00;;;;;;;;;;1803444;78;26304;-51
2022/05/23 00:49:25;;;;;;;1.10;1.10;;;;;;;;;;1800850;78;26261;-55
2022/05/23 00:51:53;;;;;;;1.02;1.02;;;;;;;;;;1802006;79;26875;-55
2022/05/23 00:54:22;;;;;;;1.00;1.00;;;;;;;;;;1802939;79;26305;-55
2022/05/23 00:56:50;;;;;;;1.10;1.10;;;;;;;;;;1803360;79;26302;-54
2022/05/23 00:59:19;;;;;;;1.02;1.02;;;;;;;;;;1811308;78;26340;-55
2022/05/23 01:01:47;;;;;;;0.98;0.98;;;;;;;;;;1826405;78;26290;-53
2022/05/23 01:04:14;;;;;;;1.12;1.07;;;;;;;;;;1817479;78;26328;-51
2022/05/23 01:06:41;;;;;;;0.98;0.98;;;;;;;;;;1802687;79;26230;-50
2022/05/23 01:09:08;;;;;;;0.95;0.93;;;;;;;;;;1808678;78;26289;-56
2022/05/23 01:11:36;;;;;;;1.10;1.10;;;;;;;;;;1807031;78;26320;-52
2022/05/23 01:14:03;;;;;;;1.00;1.00;;;;;;;;;;1803583;79;26351;-55
2022/05/23 01:16:30;;;;;;;1.00;1.00;;;;;;;;;;1803696;79;26367;-55
2022/05/23 01:18:58;;;;;;;0.90;0.90;;;;;;;;;;1803399;79;26293;-53
2022/05/23 01:21:33;;;;;;;1.00;1.00;;;;;;;;;;1802708;79;27009;-54
2022/05/23 01:24:04;;;;;;;1.00;1.00;;;;;;;;;;1801921;79;26266;-54
2022/05/23 01:26:32;;;;;;;1.00;1.00;;;;;;;;;;1801231;79;26306;-54
2022/05/23 01:28:59;;;;;;;1.00;1.00;;;;;;;;;;1803482;79;26784;-53
2022/05/23 01:31:27;;;;;;;1.00;1.00;;;;;;;;;;1805282;78;26270;-51
2022/05/23 01:33:54;;;;;;;1.47;1.00;;;;;;;;;;1802099;79;26365;-55
2022/05/23 01:36:22;;;;;;;1.00;1.00;;;;;;;;;;1800488;79;26899;-55
2022/05/23 01:38:49;;;;;;;0.93;0.93;;;;;;;;;;1800114;79;26780;-55
2022/05/23 01:41:16;;;;;;;1.10;1.10;;;;;;;;;;1799934;79;26758;-52
2022/05/23 01:43:44;;;;;;;0.90;0.90;;;;;;;;;;1800462;79;26671;-50
2022/05/23 01:46:11;;;;;;;0.82;0.82;;;;;;;;;;1800386;79;26335;-55
2022/05/23 01:48:38;;;;;;;0.90;0.90;;;;;;;;;;1800378;79;26230;-55
2022/05/23 01:51:05;;;;;;;1.10;1.10;;;;;;;;;;1794501;79;26408;-53
2022/05/23 01:53:33;;;;;;;1.07;1.07;;;;;;;;;;1800348;79;26309;-54
2022/05/23 01:56:03;;;;;;;1.10;1.10;;;;;;;;;;1800657;79;25854;-55
2022/05/23 02:01:16;;;;;;;0.90;0.90;;;;;;;;;;1796960;79;26737;-54
2022/05/23 02:03:44;;;;;;;0.90;0.90;;;;;;;;;;1800285;79;26348;-56
2022/05/23 02:06:12;;;;;;;1.00;1.00;;;;;;;;;;1800526;79;26391;-55
2022/05/23 02:08:40;;;;;;;1.00;1.00;;;;;;;;;;1801652;79;26250;-54
2022/05/23 02:11:08;;;;;;;1.00;1.00;;;;;;;;;;1800045;79;26325;-54
2022/05/23 02:13:37;;;;;;;1.02;1.02;;;;;;;;;;1800504;79;26680;-55
2022/05/23 02:16:05;;;;;;;1.00;1.00;;;;;;;;;;1798035;79;26292;-54
2022/05/23 02:18:32;;;;;;;1.00;1.00;;;;;;;;;;1799952;78;26754;-54
2022/05/23 02:20:59;;;;;;;0.90;0.90;;;;;;;;;;1800325;79;26694;-52
2022/05/23 02:23:27;;;;;;;1.00;1.00;;;;;;;;;;1797762;79;26837;-56
2022/05/23 02:25:54;;;;;;;0.93;0.93;;;;;;;;;;1800331;79;26363;-55
2022/05/23 02:28:22;;;;;;;0.85;0.85;;;;;;;;;;1795653;79;26304;-56
2022/05/23 02:30:50;;;;;;;1.10;1.10;;;;;;;;;;1787213;79;26779;-53
2022/05/23 02:33:17;;;;;;;0.90;0.90;;;;;;;;;;1807218;79;26285;-52
2022/05/23 02:35:44;;;;;;;1.00;1.00;;;;;;;;;;1800623;79;26289;-53
2022/05/23 02:38:11;;;;;;;1.10;1.10;;;;;;;;;;1771627;80;26370;-53
2022/05/23 02:40:38;;;;;;;1.00;1.00;;;;;;;;;;1790442;79;26289;-57
2022/05/23 02:43:06;;;;;;;1.00;1.00;;;;;;;;;;1788714;78;26406;-56
2022/05/23 02:45:33;;;;;;;1.00;1.00;;;;;;;;;;1769578;81;26295;-51
2022/05/23 02:48:01;;;;;;;1.00;1.00;;;;;;;;;;1768304;81;26295;-52
2022/05/23 02:50:28;;;;;;;1.10;1.10;;;;;;;;;;1807131;78;26528;-53
2022/05/23 02:52:56;;;;;;;1.00;1.00;;;;;;;;;;1831064;78;26367;-53
2022/05/23 02:55:23;;;;;;;1.00;1.00;;;;;;;;;;1831194;78;26327;-56
2022/05/23 02:57:50;;;;;;;0.90;0.90;;;;;;;;;;1816430;78;26339;-53
2022/05/23 03:00:18;;;;;;;1.22;1.10;;;;;;;;;;1818203;78;26306;-56
2022/05/23 03:03:04;;;;;;;1.00;1.00;;;;;;;;;;1819762;79;26818;-53
2022/05/23 03:05:32;;;;;;;1.00;1.00;;;;;;;;;;1804262;79;26313;-54
2022/05/23 03:08:00;;;;;;;1.10;1.00;;;;;;;;;;1797906;79;26232;-53
2022/05/23 03:10:27;;;;;;;1.00;1.00;;;;;;;;;;1819743;79;26318;-50
2022/05/23 03:12:54;;;;;;;0.90;0.90;;;;;;;;;;1813387;79;26695;-53
2022/05/23 03:15:22;;;;;;;0.98;0.95;;;;;;;;;;1798429;79;26288;-55
2022/05/23 03:17:50;;;;;;;0.90;0.90;;;;;;;;;;1797483;80;26903;-53
2022/05/23 03:20:17;;;;;;;1.00;1.00;;;;;;;;;;1798878;79;26777;-54
2022/05/23 03:28:15;;;;;;;0.90;0.90;;;;;;;;;;1800839;79;26322;-54
2022/05/23 03:30:44;;;;;;;0.80;0.80;;;;;;;;;;1799543;79;26230;-51
2022/05/23 03:33:11;;;;;;;0.90;0.90;;;;;;;;;;1818643;79;26283;-54
2022/05/23 03:35:40;;;;;;;1.00;1.00;;;;;;;;;;1822104;78;26793;-51
2022/05/23 03:38:07;;;;;;;1.00;1.00;;;;;;;;;;1799550;78;26288;-55
2022/05/23 03:40:35;;;;;;;0.90;0.90;;;;;;;;;;1776894;80;26269;-53
2022/05/23 03:43:02;;;;;;;0.80;0.80;;;;;;;;;;1793013;79;26289;-53
2022/05/23 03:45:30;;;;;;;0.80;0.80;;;;;;;;;;1795050;80;26304;-56
2022/05/23 03:47:58;;;;;;;0.90;0.90;;;;;;;;;;1794717;80;26332;-56
2022/05/23 03:50:26;;;;;;;1.07;1.07;;;;;;;;;;1793567;80;26769;-52
2022/05/23 03:52:54;;;;;;;0.80;0.80;;;;;;;;;;1794845;80;26301;-54
2022/05/23 03:55:22;;;;;;;0.82;0.82;;;;;;;;;;1794695;80;26290;-53
2022/05/23 03:57:50;;;;;;;0.85;0.85;;;;;;;;;;1795034;80;26386;-55
2022/05/23 04:00:18;;;;;;;0.98;0.98;;;;;;;;;;1819097;78;26266;-53
2022/05/23 04:02:46;;;;;;;1.00;1.00;;;;;;;;;;1814034;79;26670;-52
2022/05/23 04:05:16;;;;;;;0.90;0.90;;;;;;;;;;1766333;80;26312;-54
2022/05/23 04:07:44;;;;;;;0.80;0.80;;;;;;;;;;1769233;79;26410;-56
2022/05/23 04:10:13;;;;;;;1.05;0.93;;;;;;;;;;1822159;79;27256;-54
2022/05/23 04:12:41;;;;;;;1.10;1.00;;;;;;;;;;1808271;79;26330;-51
2022/05/23 04:15:09;;;;;;;0.80;0.80;;;;;;;;;;1794824;80;26302;-52
2022/05/23 04:17:36;;;;;;;0.98;0.98;;;;;;;;;;1774746;80;26352;-52
2022/05/23 04:20:05;;;;;;;1.00;1.00;;;;;;;;;;1794424;80;26383;-52
2022/05/23 04:22:32;;;;;;;0.80;0.80;;;;;;;;;;1794747;80;26762;-53
2022/05/23 04:24:59;;;;;;;1.00;1.00;;;;;;;;;;1795116;80;26336;-53
2022/05/23 04:27:26;;;;;;;0.90;0.90;;;;;;;;;;1784782;79;26367;-52
2022/05/23 04:29:54;;;;;;;0.93;0.93;;;;;;;;;;1781223;78;26299;-54
2022/05/23 04:35:13;;;;;;;0.90;0.90;;;;;;;;;;1802011;78;26313;-55
2022/05/23 04:37:42;;;;;;;0.88;0.88;;;;;;;;;;1793408;78;26321;-50
2022/05/23 04:40:10;;;;;;;0.80;0.80;;;;;;;;;;1766119;81;26300;-51
2022/05/23 04:42:37;;;;;;;0.90;0.90;;;;;;;;;;1766985;80;26784;-55
2022/05/23 04:45:05;;;;;;;1.17;0.95;;;;;;;;;;1766353;81;26320;-53
2022/05/23 04:50:18;;;;;;;1.00;1.00;;;;;;;;;;1782466;78;26848;-49
2022/05/23 04:52:47;;;;;;;0.90;0.90;;;;;;;;;;1793265;78;26367;-54
2022/05/23 04:55:15;;;;;;;1.10;1.10;;;;;;;;;;1794900;80;26322;-54
2022/05/23 04:57:42;;;;;;;0.93;0.93;;;;;;;;;;1794622;80;26356;-54
2022/05/23 05:00:13;;;;;;;0.90;0.90;;;;;;;;;;1817611;78;26576;-51
2022/05/23 05:02:41;;;;;;;0.98;0.98;;;;;;;;;;1795064;80;26828;-54
2022/05/23 05:05:09;;;;;;;0.90;0.90;;;;;;;;;;1793904;78;26273;-50
2022/05/23 05:07:36;;;;;;;0.90;0.90;;;;;;;;;;1793660;80;26761;-54
2022/05/23 05:10:04;;;;;;;0.90;0.90;;;;;;;;;;1781773;80;26297;-48
2022/05/23 05:12:31;;;;;;;1.00;1.00;;;;;;;;;;1790531;80;26301;-52
2022/05/23 05:14:59;;;;;;;1.35;0.90;;;;;;;;;;1791684;80;26301;-53
2022/05/23 05:17:27;;;;;;;2.10;0.98;;;;;;;;;;1794266;80;27978;-52
2022/05/23 05:19:55;;;;;;;1.02;1.02;;;;;;;;;;1792499;80;26294;-54
2022/05/23 05:22:22;;;;;;;1.70;1.10;;;;;;;;;;1793713;80;26819;-52
2022/05/23 05:24:49;;;;;;;0.93;0.93;;;;;;;;;;1794375;80;26862;-54
2022/05/23 05:27:17;;;;;;;1.00;0.90;;;;;;;;;;1799353;78;26373;-53
2022/05/23 05:29:44;;;;;;;1.12;1.07;;;;;;;;;;1807127;78;26414;-52
2022/05/23 05:32:12;;;;;;;0.90;0.90;;;;;;;;;;1809183;78;26602;-51
2022/05/23 05:34:41;;;;;;;0.90;0.90;;;;;;;;;;1793207;78;26313;-52
2022/05/23 05:37:13;;;;;;;1.35;0.95;;;;;;;;;;1792041;78;26419;-54
2022/05/23 05:39:43;;;;;;;1.07;1.07;;;;;;;;;;1760774;78;26747;-51
2022/05/23 05:42:18;;;;;;;1.00;1.00;;;;;;;;;;1794204;80;26900;-48
2022/05/23 05:44:47;;;;;;;1.40;1.17;;;;;;;;;;1789249;80;26598;-55
2022/05/23 05:47:16;;;;;;;1.10;1.10;;;;;;;;;;1793147;78;26338;-51
2022/05/23 05:49:45;;;;;;;1.00;1.00;;;;;;;;;;1793540;79;26375;-50
2022/05/23 05:52:13;;;;;;;1.10;1.10;;;;;;;;;;1769144;80;26320;-50
2022/05/23 05:54:41;;;;;;;1.10;1.10;;;;;;;;;;1783405;80;26618;-54
2022/05/23 05:57:09;;;;;;;1.00;1.00;;;;;;;;;;1794112;80;26290;-50
2022/05/23 05:59:37;;;;;;;1.10;1.10;;;;;;;;;;1797144;78;26375;-55
2022/05/23 06:02:07;;;;;;;1.85;1.00;;;;;;;;;;1790380;78;26351;-53
2022/05/23 06:04:34;;;;;;;1.10;1.10;;;;;;;;;;1794115;79;26251;-50
2022/05/23 06:12:34;;;;;;;1.00;1.00;;;;;;;;;;1799640;79;27528;-52
2022/05/23 06:15:01;;;;;;;1.02;1.02;;;;;;;;;;1776049;80;26372;-52
2022/05/23 06:17:28;;;;;;;1.10;1.10;;;;;;;;;;1766260;81;26245;-53
2022/05/23 06:19:56;;;;;;;1.30;1.12;;;;;;;;;;1781596;80;26840;-55
2022/05/23 06:22:23;;;;;;;1.75;1.00;;;;;;;;;;1772071;80;26344;-50
2022/05/23 06:24:50;;;;;;;1.20;1.10;;;;;;;;;;1786381;78;26476;-55
2022/05/23 06:27:18;;;;;;;1.00;1.00;;;;;;;;;;1778814;80;26370;-50
2022/05/23 06:29:45;;;;;;;3.50;1.00;;;;;;;;;;1793369;80;26294;-54
2022/05/23 06:32:12;;;;;;;1.00;1.00;;;;;;;;;;1802770;79;26287;-51
2022/05/23 06:34:39;;;;;;;1.00;1.00;;;;;;;;;;1822364;78;26324;-53
2022/05/23 06:37:10;;;;;;;1.10;1.10;;;;;;;;;;1808316;78;26428;-52
2022/05/23 06:39:37;;;;;;;1.00;1.00;;;;;;;;;;1793426;79;26391;-55
2022/05/23 06:42:05;;;;;;;1.92;1.30;;;;;;;;;;1800569;79;26308;-50
2022/05/23 06:44:32;;;;;;;1.12;1.12;;;;;;;;;;1795413;79;26374;-50
2022/05/23 06:46:59;;;;;;;1.10;1.10;;;;;;;;;;1771769;81;26631;-52
2022/05/23 06:49:27;;;;;;;1.05;1.05;;;;;;;;;;1771810;79;26942;-51
2022/05/23 06:51:54;;;;;;;1.00;1.00;;;;;;;;;;1788016;78;26304;-53
2022/05/23 06:54:23;;;;;;;1.02;1.02;;;;;;;;;;1798498;79;26329;-54
2022/05/23 06:56:50;;;;;;;1.20;1.20;;;;;;;;;;1798834;79;26348;-54
2022/05/23 06:59:18;;;;;;;1.12;1.12;;;;;;;;;;1798460;78;25865;-54
2022/05/23 07:01:47;;;;;;;2.67;1.20;;;;;;;;;;1782375;79;26293;-51
2022/05/23 07:04:14;;;;;;;1.82;1.20;;;;;;;;;;1799366;79;26705;-51
2022/05/23 07:14:42;;;;;;;1.30;1.30;;;;;;;;;;1802432;79;26600;-52
2022/05/23 07:17:09;;;;;;;1.52;1.20;;;;;;;;;;1800552;79;26312;-52
2022/05/23 07:19:37;;;;;;;1.50;1.32;;;;;;;;;;1795381;79;26304;-51
2022/05/23 07:22:04;;;;;;;1.62;1.22;;;;;;;;;;1798414;79;26332;-51
2022/05/23 07:24:32;;;;;;;1.40;1.30;;;;;;;;;;1797902;79;26231;-53
2022/05/23 07:26:59;;;;;;;1.40;1.40;;;;;;;;;;1792242;79;26403;-53
2022/05/23 07:29:27;;;;;;;1.67;1.40;;;;;;;;;;1798275;79;26750;-52
2022/05/23 07:31:54;;;;;;;1.32;1.30;;;;;;;;;;1794367;79;26367;-54
2022/05/23 07:34:21;;;;;;;1.60;1.50;;;;;;;;;;1798749;79;26737;-53
2022/05/23 07:36:49;;;;;;;1.20;1.20;;;;;;;;;;1801101;78;26384;-52
2022/05/23 07:39:16;;;;;;;1.60;1.50;;;;;;;;;;1791935;78;26344;-52
2022/05/23 07:41:44;;;;;;;2.02;1.32;;;;;;;;;;1803802;79;26371;-53
2022/05/23 07:44:13;;;;;;;1.40;1.40;;;;;;;;;;1801196;78;26859;-52
2022/05/23 07:46:41;;;;;;;2.10;1.47;;;;;;;;;;1793737;79;26278;-56
2022/05/23 07:49:09;;;;;;;2.35;1.50;;;;;;;;;;1788735;79;26349;-50
2022/05/23 07:51:36;;;;;;;2.15;1.50;;;;;;;;;;1804302;79;26858;-54
2022/05/23 08:02:20;;;;;;;1.90;1.80;;;;;;;;;;1803407;79;26360;-52
2022/05/23 08:04:48;;;;;;;1.52;1.40;;;;;;;;;;1804222;79;26425;-53
2022/05/23 08:07:15;;;;;;;4.33;1.70;;;;;;;;;;1802828;78;26312;-48
2022/05/23 08:09:42;;;;;;;1.45;1.45;;;;;;;;;;1819327;78;26338;-49
2022/05/23 08:12:11;;;;;;;2.17;1.62;;;;;;;;;;1829850;78;26306;-51
2022/05/23 08:14:38;;;;;;;2.00;1.60;;;;;;;;;;1813399;78;26387;-51
2022/05/23 08:17:06;;;;;;;1.57;1.47;;;;;;;;;;1800124;78;26372;-55
2022/05/23 08:19:33;;;;;;;2.55;1.75;;;;;;;;;;1802499;79;26297;-49
2022/05/23 08:22:01;;;;;;;1.55;1.45;;;;;;;;;;1803341;79;26313;-53
2022/05/23 08:24:28;;;;;;;1.47;1.47;;;;;;;;;;1798774;79;26626;-55
2022/05/23 08:26:56;;;;;;;3.17;1.70;;;;;;;;;;1783892;79;26379;-51
2022/05/23 08:29:23;;;;;;;1.40;1.40;;;;;;;;;;1802489;79;26349;-56
2022/05/23 08:31:51;;;;;;;5.78;2.05;;;;;;;;;;1803540;78;26927;-55
2022/05/23 08:34:18;;;;;;;1.77;1.75;;;;;;;;;;1803958;79;26792;-51
2022/05/23 08:36:46;;;;;;;3.15;1.70;;;;;;;;;;1802166;79;26371;-54
2022/05/23 08:39:13;;;;;;;1.85;1.75;;;;;;;;;;1789809;79;26920;-54
2022/05/23 08:41:42;;;;;;;1.70;1.70;;;;;;;;;;1794811;78;26884;-56
2022/05/23 08:44:17;;;;;;;2.05;1.60;;;;;;;;;;1790858;80;26351;-50
2022/05/23 08:46:52;;;;;;;1.65;1.55;;;;;;;;;;1791639;80;26785;-55
2022/05/23 08:49:21;;;;;;;1.80;1.70;;;;;;;;;;1790417;80;26777;-51
2022/05/23 08:51:49;;;;;;;1.65;1.55;;;;;;;;;;1789798;80;26880;-55
2022/05/23 08:54:18;;;;;;;1.80;1.70;;;;;;;;;;1786616;80;26815;-51
2022/05/23 08:56:47;;;;;;;2.15;1.55;;;;;;;;;;1793832;80;26351;-56
2022/05/23 08:59:16;;;;;;;1.80;1.40;;;;;;;;;;1796707;78;26282;-55
2022/05/23 09:01:48;;;;;;;1.70;1.60;;;;;;;;;;1767551;80;26301;-54
2022/05/23 09:04:23;;;;;;;1.80;1.72;;;;;;;;;;1794788;80;26321;-54
2022/05/23 09:06:51;;;;;;;3.58;1.77;;;;;;;;;;1792329;80;26223;-50
2022/05/23 09:09:20;;;;;;;1.37;1.35;;;;;;;;;;1796083;78;26438;-48
2022/05/23 09:11:50;;;;;;;1.67;1.57;;;;;;;;;;1791913;78;26289;-50
2022/05/23 09:14:19;;;;;;;1.62;1.50;;;;;;;;;;1794269;80;26305;-50
2022/05/23 09:16:53;;;;;;;1.50;1.50;;;;;;;;;;1794233;80;26309;-54
2022/05/23 09:19:37;;;;;;;1.42;1.42;;;;;;;;;;1792216;80;26321;-52
2022/05/23 09:22:15;;;;;;;1.50;1.40;;;;;;;;;;1793252;80;26297;-52
2022/05/23 09:24:45;;;;;;;1.40;1.35;;;;;;;;;;1794347;80;26940;-56
2022/05/23 09:27:23;;;;;;;1.20;1.20;;;;;;;;;;1794386;80;26321;-50
2022/05/23 09:29:52;;;;;;;1.50;1.50;;;;;;;;;;1753032;78;26816;-52
2022/05/23 09:32:21;;;;;;;1.27;1.27;;;;;;;;;;1798355;78;26722;-51
2022/05/23 09:34:50;;;;;;;1.37;1.37;;;;;;;;;;1793909;78;26297;-53
2022/05/23 09:37:18;;;;;;;1.50;1.50;;;;;;;;;;1791705;79;26325;-55
2022/05/23 09:39:47;;;;;;;1.20;1.20;;;;;;;;;;1791061;78;26293;-51
2022/05/23 09:47:45;;;;;;;1.30;1.30;;;;;;;;;;1755801;79;26856;-55
2022/05/23 09:50:14;;;;;;;1.10;1.10;;;;;;;;;;1797410;79;26268;-51
2022/05/23 09:52:49;;;;;;;1.30;1.30;;;;;;;;;;1798959;79;26662;-54
2022/05/23 09:55:30;;;;;;;1.10;1.10;;;;;;;;;;1800422;79;26293;-56
2022/05/23 09:57:57;;;;;;;1.20;1.20;;;;;;;;;;1787793;79;26336;-52
2022/05/23 10:00:26;;;;;;;1.12;1.12;;;;;;;;;;1795438;78;26273;-54
2022/05/23 10:03:01;;;;;;;1.60;1.07;;;;;;;;;;1812991;78;27459;-55
2022/05/23 10:05:30;;;;;;;1.15;1.15;;;;;;;;;;1796956;79;26839;-53
2022/05/23 10:08:00;;;;;;;1.17;1.17;;;;;;;;;;1797443;78;27254;-54
2022/05/23 10:10:32;;;;;;;2.12;1.10;;;;;;;;;;1796434;78;26403;-53
2022/05/23 10:13:18;;;;;;;3.77;1.10;;;;;;;;;;1800049;79;26320;-56
2022/05/23 10:15:47;;;;;;;1.20;1.10;;;;;;;;;;1771822;79;26301;-56
2022/05/23 10:18:19;;;;;;;1.20;1.20;;;;;;;;;;1791589;79;26303;-52
2022/05/23 10:20:46;;;;;;;1.00;1.00;;;;;;;;;;1794362;79;26298;-51
2022/05/23 10:23:15;;;;;;;1.10;1.10;;;;;;;;;;1794052;79;26289;-53
2022/05/23 10:25:47;;;;;;;1.02;1.02;;;;;;;;;;1799362;79;26777;-50
2022/05/23 10:28:15;;;;;;;1.10;1.10;;;;;;;;;;1798236;79;26603;-52
2022/05/23 10:30:45;;;;;;;1.17;1.17;;;;;;;;;;1799241;79;26376;-52
2022/05/23 10:33:14;;;;;;;0.95;0.95;;;;;;;;;;1817198;79;26771;-54
2022/05/23 10:35:44;;;;;;;1.05;1.05;;;;;;;;;;1819620;79;26765;-53
2022/05/23 10:43:51;;;;;;;1.00;1.00;;;;;;;;;;1803824;79;26403;-53
2022/05/23 10:46:18;;;;;;;1.90;1.35;;;;;;;;;;1804123;79;26777;-54
2022/05/23 10:48:55;;;;;;;1.00;1.00;;;;;;;;;;1803066;79;26728;-54
2022/05/23 10:51:41;;;;;;;1.32;1.05;;;;;;;;;;1794093;79;26294;-49
2022/05/23 10:54:10;;;;;;;1.20;1.20;;;;;;;;;;1804074;79;26336;-50
2022/05/23 10:56:44;;;;;;;1.10;1.00;;;;;;;;;;1804273;79;26583;-54
2022/05/23 10:59:20;;;;;;;1.00;1.00;;;;;;;;;;1812102;78;26314;-51
2022/05/23 11:01:49;;;;;;;0.98;0.98;;;;;;;;;;1826048;78;26762;-51
2022/05/23 11:04:24;;;;;;;2.05;1.12;;;;;;;;;;1787006;78;26749;-52
2022/05/23 11:07:00;;;;;;;1.12;1.10;;;;;;;;;;1776252;79;26792;-52
2022/05/23 11:09:38;;;;;;;1.10;1.10;;;;;;;;;;1798655;79;26396;-49
2022/05/23 11:12:07;;;;;;;2.80;1.10;;;;;;;;;;1804227;78;26337;-53
2022/05/23 11:14:44;;;;;;;1.72;1.10;;;;;;;;;;1768974;79;26285;-54
2022/05/23 11:17:22;;;;;;;1.00;1.00;;;;;;;;;;1803035;79;26899;-51
2022/05/23 11:20:08;;;;;;;1.00;1.00;;;;;;;;;;1802824;79;26915;-56
2022/05/23 11:22:37;;;;;;;1.05;1.00;;;;;;;;;;1803990;79;26367;-49
2022/05/23 11:25:06;;;;;;;1.47;1.10;;;;;;;;;;1799826;79;26379;-55
2022/05/23 11:36:09;;;;;;;0.80;0.80;;;;;;;;;;1775071;81;26344;-52
2022/05/23 11:38:45;;;;;;;0.88;0.88;;;;;;;;;;1771260;78;26347;-54
2022/05/23 11:41:29;;;;;;;1.00;1.00;;;;;;;;;;1766037;80;26878;-53
2022/05/23 11:43:56;;;;;;;1.98;1.50;;;;;;;;;;1794792;78;26313;-55
2022/05/23 11:46:27;;;;;;;1.10;1.10;;;;;;;;;;1794647;80;26302;-55
2022/05/23 11:48:58;;;;;;;1.00;1.00;;;;;;;;;;1793125;80;26738;-51
2022/05/23 11:51:27;;;;;;;1.20;1.10;;;;;;;;;;1781363;80;26289;-54
2022/05/23 11:53:56;;;;;;;1.00;1.00;;;;;;;;;;1788951;80;26819;-53
2022/05/23 11:56:42;;;;;;;3.77;1.00;;;;;;;;;;1789121;80;26290;-53
2022/05/23 11:59:13;;;;;;;1.55;1.00;;;;;;;;;;1798247;79;26360;-52
2022/05/23 12:01:41;;;;;;;1.27;0.95;;;;;;;;;;1786584;80;26265;-52
2022/05/23 12:04:09;;;;;;;3.17;1.00;;;;;;;;;;1791190;80;26749;-55
2022/05/23 12:06:38;;;;;;;1.10;1.10;;;;;;;;;;1790769;80;26730;-53
2022/05/23 12:09:20;;;;;;;1.00;1.00;;;;;;;;;;1793442;79;26324;-52
2022/05/23 12:11:51;;;;;;;0.90;0.90;;;;;;;;;;1776707;79;26305;-52
2022/05/23 12:14:25;;;;;;;2.65;0.90;;;;;;;;;;1789168;80;26297;-52
2022/05/23 12:16:57;;;;;;;1.00;0.90;;;;;;;;;;1790227;80;26271;-52
2022/05/23 12:19:29;;;;;;;0.80;0.80;;;;;;;;;;1792985;80;26406;-55
2022/05/23 12:22:15;;;;;;;0.80;0.80;;;;;;;;;;1790942;80;26368;-54
2022/05/23 12:25:00;;;;;;;0.90;0.90;;;;;;;;;;1773084;80;26295;-50
2022/05/23 12:27:29;;;;;;;6.33;1.30;;;;;;;;;;1791063;80;26284;-52
2022/05/23 12:30:13;;;;;;;1.57;0.90;;;;;;;;;;1770193;80;26329;-56
2022/05/23 12:32:41;;;;;;;0.75;0.75;;;;;;;;;;1649633;86;26939;-53
2022/05/23 12:35:13;;;;;;;0.85;0.85;;;;;;;;;;1766318;79;26290;-51
2022/05/23 12:37:41;;;;;;;1.00;1.00;;;;;;;;;;1803302;79;26344;-55
2022/05/23 12:40:19;;;;;;;2.33;0.90;;;;;;;;;;1799584;79;27042;-56
2022/05/23 12:42:47;;;;;;;3.47;1.07;;;;;;;;;;1797405;79;26357;-50
2022/05/23 12:45:19;;;;;;;0.80;0.80;;;;;;;;;;1777188;79;26285;-52
2022/05/23 12:47:54;;;;;;;1.00;1.00;;;;;;;;;;1797020;79;26396;-54
2022/05/23 12:50:23;;;;;;;2.45;0.80;;;;;;;;;;1800513;79;26313;-53
2022/05/23 12:53:08;;;;;;;0.80;0.80;;;;;;;;;;1800867;79;26949;-52
2022/05/23 12:55:54;;;;;;;1.00;1.00;;;;;;;;;;1800142;79;26301;-53
2022/05/23 12:58:32;;;;;;;0.90;0.90;;;;;;;;;;1796097;78;26313;-55
2022/05/23 13:01:01;;;;;;;0.93;0.93;;;;;;;;;;1796338;80;26376;-56
2022/05/23 13:03:32;;;;;;;2.72;1.00;;;;;;;;;;1800342;79;26250;-54
2022/05/23 13:06:01;;;;;;;0.80;0.80;;;;;;;;;;1801807;79;26324;-54
2022/05/23 13:08:30;;;;;;;0.72;0.72;;;;;;;;;;1802493;79;26333;-52
2022/05/23 13:10:59;;;;;;;0.90;0.90;;;;;;;;;;1801413;79;26450;-56
2022/05/23 13:13:27;;;;;;;2.08;0.93;;;;;;;;;;1781180;79;26304;-50
2022/05/23 13:15:55;;;;;;;0.80;0.80;;;;;;;;;;1799062;80;26385;-54
2022/05/23 13:23:54;;;;;;;1.45;0.72;;;;;;;;;;1800802;79;26801;-54
2022/05/23 13:26:22;;;;;;;0.80;0.80;;;;;;;;;;1800722;79;26325;-49
2022/05/23 13:28:53;;;;;;;0.85;0.80;;;;;;;;;;1799834;79;26297;-51
2022/05/23 13:31:33;;;;;;;1.37;0.82;;;;;;;;;;1801359;79;26227;-50
2022/05/23 13:33:59;;;;;;;0.80;0.80;;;;;;;;;;1800675;79;26289;-54
2022/05/23 13:36:28;;;;;;;0.90;0.90;;;;;;;;;;1800770;79;26983;-56
2022/05/23 13:39:03;;;;;;;0.90;0.90;;;;;;;;;;1781656;79;26351;-51
2022/05/23 13:41:32;;;;;;;0.90;0.90;;;;;;;;;;1779998;80;26372;-54
2022/05/23 13:43:59;;;;;;;0.80;0.80;;;;;;;;;;1794975;80;26282;-49
2022/05/23 13:46:28;;;;;;;0.95;0.80;;;;;;;;;;1783595;80;26390;-51
2022/05/23 13:48:57;;;;;;;0.80;0.80;;;;;;;;;;1775964;80;26305;-55
2022/05/23 13:51:25;;;;;;;1.50;1.00;;;;;;;;;;1789624;80;26285;-51
2022/05/23 13:54:00;;;;;;;0.80;0.80;;;;;;;;;;1792936;80;26343;-54
2022/05/23 13:56:28;;;;;;;0.80;0.80;;;;;;;;;;1794304;80;26889;-50
2022/05/23 13:58:57;;;;;;;1.85;0.90;;;;;;;;;;1803392;78;26251;-55
2022/05/23 14:01:26;;;;;;;0.82;0.82;;;;;;;;;;1811723;79;26261;-52
2022/05/23 14:03:55;;;;;;;0.90;0.90;;;;;;;;;;1789066;80;26966;-55
2022/05/23 14:06:24;;;;;;;1.07;1.07;;;;;;;;;;1807636;78;26291;-52
2022/05/23 14:08:54;;;;;;;1.00;1.00;;;;;;;;;;1783590;78;26238;-51
2022/05/23 14:11:23;;;;;;;0.98;0.90;;;;;;;;;;1791833;79;26333;-51
2022/05/23 14:13:52;;;;;;;0.78;0.78;;;;;;;;;;1775203;79;26280;-56
2022/05/23 14:16:20;;;;;;;1.55;0.80;;;;;;;;;;1766479;81;26378;-53
2022/05/23 14:18:48;;;;;;;0.70;0.70;;;;;;;;;;1766263;81;26312;-54
2022/05/23 14:21:33;;;;;;;0.90;0.90;;;;;;;;;;1763269;81;26284;-54
2022/05/23 14:24:02;;;;;;;0.80;0.80;;;;;;;;;;1768199;80;26406;-57
2022/05/23 14:26:29;;;;;;;1.57;1.00;;;;;;;;;;1766300;81;26332;-55
2022/05/23 14:28:57;;;;;;;0.90;0.90;;;;;;;;;;1766593;80;26321;-56
2022/05/23 14:31:32;;;;;;;0.82;0.82;;;;;;;;;;1794975;79;26780;-56
2022/05/23 14:34:00;;;;;;;0.90;0.90;;;;;;;;;;1777509;80;26302;-53
2022/05/23 14:36:27;;;;;;;0.90;0.90;;;;;;;;;;1784792;80;26821;-54
2022/05/23 14:38:59;;;;;;;0.80;0.80;;;;;;;;;;1793750;80;26301;-56
2022/05/23 14:41:37;;;;;;;2.85;1.00;;;;;;;;;;1790514;79;26916;-50
2022/05/23 14:44:06;;;;;;;0.90;0.90;;;;;;;;;;1794158;78;26292;-55
2022/05/23 14:46:38;;;;;;;0.98;0.98;;;;;;;;;;1794590;78;26223;-49
2022/05/23 14:49:07;;;;;;;0.90;0.90;;;;;;;;;;1791290;78;26355;-55
2022/05/23 14:51:41;;;;;;;1.10;1.10;;;;;;;;;;1788971;80;26294;-56
2022/05/23 14:56:57;;;;;;;0.80;0.80;;;;;;;;;;1791319;78;26329;-55
2022/05/23 15:02:13;;;;;;;0.90;0.90;;;;;;;;;;1766073;81;26435;-51
2022/05/23 15:04:42;;;;;;;1.20;1.10;;;;;;;;;;1765966;81;26390;-52
2022/05/23 15:07:10;;;;;;;1.40;0.95;;;;;;;;;;1792163;78;26306;-52
2022/05/23 15:09:38;;;;;;;1.00;1.00;;;;;;;;;;1787645;78;27514;-55
2022/05/23 15:12:16;;;;;;;1.17;0.93;;;;;;;;;;1793545;78;26340;-55
2022/05/23 15:14:43;;;;;;;0.95;0.95;;;;;;;;;;1802703;78;26729;-55
2022/05/23 15:17:15;;;;;;;1.00;1.00;;;;;;;;;;1800504;78;26309;-54
2022/05/23 15:19:42;;;;;;;1.55;0.90;;;;;;;;;;1788547;78;26871;-56
2022/05/23 15:22:11;;;;;;;1.10;1.10;;;;;;;;;;1796186;78;26345;-55
2022/05/23 15:24:39;;;;;;;1.75;0.90;;;;;;;;;;1794577;80;26277;-55
2022/05/23 15:27:06;;;;;;;1.10;1.10;;;;;;;;;;1795040;80;26254;-55
2022/05/23 15:29:35;;;;;;;3.10;1.00;;;;;;;;;;1794525;80;26699;-52
2022/05/23 15:32:03;;;;;;;1.40;1.12;;;;;;;;;;1807141;79;27180;-52
2022/05/23 15:34:30;;;;;;;1.77;1.00;;;;;;;;;;1822414;79;26376;-54
2022/05/23 15:36:57;;;;;;;1.00;1.00;;;;;;;;;;1800140;79;26344;-50
2022/05/23 15:39:24;;;;;;;1.10;1.10;;;;;;;;;;1788182;78;26364;-53
2022/05/23 15:41:52;;;;;;;1.10;1.10;;;;;;;;;;1794918;78;26293;-55
2022/05/23 15:44:21;;;;;;;1.55;1.17;;;;;;;;;;1786294;79;26291;-56
2022/05/23 15:46:51;;;;;;;1.07;1.00;;;;;;;;;;1795067;80;26340;-52
2022/05/23 15:49:18;;;;;;;1.05;1.05;;;;;;;;;;1789277;79;26327;-51
2022/05/23 15:51:45;;;;;;;1.82;1.17;;;;;;;;;;1766476;80;26246;-51
2022/05/23 15:54:13;;;;;;;1.72;1.20;;;;;;;;;;1789096;78;26336;-53
2022/05/23 15:56:41;;;;;;;2.35;1.10;;;;;;;;;;1794583;78;26316;-56
2022/05/23 15:59:09;;;;;;;1.32;1.05;;;;;;;;;;1798331;78;26223;-52
2022/05/23 16:01:37;;;;;;;1.50;1.00;;;;;;;;;;1775514;80;26294;-51
2022/05/23 16:04:04;;;;;;;1.10;1.10;;;;;;;;;;1793284;80;26318;-55
2022/05/23 16:06:31;;;;;;;1.10;1.10;;;;;;;;;;1785719;78;26902;-53
2022/05/23 16:09:01;;;;;;;0.90;0.90;;;;;;;;;;1804679;79;26275;-49